Alexander, NC (28701)

12:06 AM EDT on July 30, 2016 (GMT -0400)
French Broad | | Change Station

Elev 2037 ft 35.71 °N, 82.64 °W | Updated 10 minutes ago

Clear
Clear
68.9 °F
Feels Like 68.9 °F
N
0.0
Wind Variable Wind from NNW
Gusts 0.0 mph

Today
High -- | Low -- °F
--% Chance of Precip.
Yesterday
High -- | Low -- °F
Precip. -- in
Pressure 29.99 in
Visibility 10.0 miles
Clouds Clear
Dew Point 68 °F
Humidity 98%
Rainfall in
Snow Depth Not available.
6:37 AM 8:36 PM
Waning Crescent, 16% visible
METAR KAVL 300354Z AUTO 00000KT 10SM CLR 22/19 A3008 RMK AO2 SLP156 T02220189
Pressure 29.99 in
Visibility 10.0 miles
Clouds Clear
Dew Point 68 °F
Humidity 98%
Rainfall in
Snow Depth Not available.
6:37 AM 8:36 PM
Waning Crescent, 16% visible
METAR KAVL 300354Z AUTO 00000KT 10SM CLR 22/19 A3008 RMK AO2 SLP156 T02220189

10-Day Weather Forecast

Almanac

Astronomy

Jul. 30, 2016 Rise Set
Actual Time
Civil Twilight
Nautical Twilight
Astronomical Twilight
Moon
Length of Visible Light
Length of Day
Tomorrow will be .
, % of the Moon is Illuminated

Today's Extremes

State Highs State Lows

Community

WunderPhotos

Upload Photos

1,928,500 photos uploaded!

WunderBlog® & News

Nearby

Air Quality

  Air Quality AQ Index Pollutant
Not available.

Snow Depth

Station Depth Elevation

Earthquake Activity

City Distance Mag. Time & Date
Minimum magnitude displayed is 2.5.

Coastal Water Temperatures

Place Temperature

Stations

Nearby Weather Stations

Station Location Temp. Windchill Dew Point Humidity Wind Precip. Elev Updated Type
                   

Watches & Warnings

There are currently no watches in effect.